This is the latest recevied weather packets stored in our database for station/object N7BTW-13. If no packets are shown the sender has not sent any weather packets the latest 10 day(s).
| Time | Temp. | Humidity | Pressure | Rain* | Wind** | Luminosity | Snow |
|---|---|---|---|---|---|---|---|
| 1787853607 | 23.89° C | 58% | - | 0 mm | - | - | - |
| 1787853008 | 22.22° C | 61% | - | 0 mm | - | - | - |
| 1787852413 | 22.78° C | 61% | - | 0 mm | - | - | - |
| 1787851809 | 22.22° C | 61% | - | 0 mm | - | - | - |
| 1787851210 | 22.22° C | 63% | - | 0 mm | - | - | - |
| 1787850618 | 21.67° C | 65% | - | 0 mm | - | - | - |
| 1787850008 | 20.56° C | 69% | - | 0 mm | - | - | - |
| 1787849406 | 19.44° C | 73% | - | 0 mm | - | - | - |
| 1787848806 | 19.44° C | 75% | - | 0 mm | - | - | - |
| 1787848207 | 18.33° C | 80% | - | 0 mm | - | - | - |
| 1787847607 | 17.78° C | 82% | - | 0 mm | - | - | - |
| 1787847008 | 17.22° C | 82% | - | 0 mm | - | - | - |
| 1787846408 | 17.78° C | 82% | - | 0 mm | - | - | - |
| 1787845808 | 16.11° C | 87% | - | 0 mm | - | - | - |
| 1787845207 | 15° C | 93% | - | 0 mm | - | - | - |
| 1787844610 | 12.78° C | 99% | - | 0 mm | - | - | - |
| 1787844012 | 12.78° C | 99% | - | 0 mm | - | - | - |
| 1787843407 | 12.22° C | 99% | - | 0 mm | - | - | - |
| 1787842807 | 11.67° C | 99% | - | 0 mm | - | - | - |
| 1787842206 | 11.67° C | 99% | - | 0 mm | - | - | - |
| 1787841607 | 11.67° C | 99% | - | 0 mm | - | - | - |
| 1787841011 | 11.11° C | 99% | - | 0 mm | - | - | - |
| 1787840407 | 11.11° C | 99% | - | 0 mm | - | - | - |
| 1787839812 | 11.11° C | 99% | - | 0 mm | - | - | - |
| 1787839208 | 10.56° C | 99% | - | 0 mm | - | - | - |
* Rain latest hour (hover to see other rain measurements)
** Current wind speed in m/s (hover to see current wind gust speed)